Time;durP1;ratioP1;P1;durP2;ratioP2;P2;SDS_P1;SDS_P2;PMS_P1;PMS_P2;Temp;Humidity;BMP_temperature;BMP_pressure;BME280_temperature;BME280_humidity;BME280_pressure;Samples;Min_cycle;Max_cycle;Signal;HPM_P1;HPM_P2
2023/01/02 00:00:09;;;;;;;3.83;0.68;;;;;;;11.83;45.02;99908.88;6214823;23;20000;-87
2023/01/02 00:02:34;;;;;;;2.60;0.63;;;;;;;11.82;44.93;99903.75;6189658;23;20009;-87
2023/01/02 00:05:00;;;;;;;1.02;0.60;;;;;;;11.83;44.86;99922.28;6214945;23;20016;-87
2023/01/02 00:07:26;;;;;;;2.08;0.77;;;;;;;11.80;45.00;99911.16;6188677;23;20082;-87
2023/01/02 00:09:51;;;;;;;0.60;0.40;;;;;;;11.86;44.79;99920.22;6189786;23;20064;-87
2023/01/02 00:12:17;;;;;;;0.90;0.50;;;;;;;11.86;44.69;99921.03;6214432;23;19996;-87
2023/01/02 00:14:43;;;;;;;0.70;0.60;;;;;;;11.78;44.78;99923.91;6188839;23;20451;-87
2023/01/02 00:17:08;;;;;;;1.20;0.70;;;;;;;11.83;44.71;99932.97;6187180;23;20012;-87
2023/01/02 00:19:34;;;;;;;1.85;0.60;;;;;;;11.74;44.71;99917.31;6188714;23;20530;-87
2023/01/02 00:22:00;;;;;;;1.10;0.60;;;;;;;11.76;44.76;99924.13;6214087;23;20568;-87
2023/01/02 00:24:25;;;;;;;0.90;0.60;;;;;;;11.83;44.72;99942.84;6213831;23;20273;-87
2023/01/02 00:26:51;;;;;;;1.08;0.60;;;;;;;11.75;44.68;99940.41;6189197;23;20015;-87
2023/01/02 00:29:17;;;;;;;1.67;0.60;;;;;;;11.80;44.74;99938.75;6213307;23;20160;-87
2023/01/02 00:31:42;;;;;;;3.63;0.80;;;;;;;11.80;44.70;99946.78;6188605;23;20008;-87
2023/01/02 00:34:08;;;;;;;1.13;0.40;;;;;;;11.74;44.78;99944.91;6189307;23;20450;-87
2023/01/02 00:36:33;;;;;;;1.27;0.40;;;;;;;11.78;44.65;99939.97;6189405;23;20512;-87
2023/01/02 00:38:59;;;;;;;0.68;0.50;;;;;;;11.83;44.33;99953.56;6213826;23;20004;-87
2023/01/02 00:41:25;;;;;;;2.05;0.60;;;;;;;11.81;44.39;99961.81;6188906;23;20350;-87
2023/01/02 00:43:51;;;;;;;1.92;0.60;;;;;;;11.79;44.81;99966.53;6239082;23;20013;-87
2023/01/02 00:46:17;;;;;;;1.23;0.60;;;;;;;11.66;44.68;99950.50;6214005;23;20008;-87
2023/01/02 00:48:43;;;;;;;2.03;0.40;;;;;;;11.82;44.45;99976.84;6189928;23;20043;-87
2023/01/02 00:51:09;;;;;;;0.65;0.45;;;;;;;11.81;44.61;99980.56;6213938;23;20001;-87
2023/01/02 00:53:37;;;;;;;0.40;0.30;;;;;;;11.77;44.39;99981.16;6188979;23;20008;-87
2023/01/02 00:56:02;;;;;;;1.88;0.57;;;;;;;11.77;44.57;99983.84;6188745;23;20425;-87
2023/01/02 00:58:28;;;;;;;1.67;0.60;;;;;;;11.75;44.44;99983.22;6213186;23;20011;-87
2023/01/02 01:00:54;;;;;;;1.50;0.52;;;;;;;11.74;44.68;99976.22;6187477;23;20453;-87
2023/01/02 01:03:19;;;;;;;1.63;0.50;;;;;;;11.82;44.54;99990.22;6191383;23;20439;-87
2023/01/02 01:05:45;;;;;;;0.73;0.40;;;;;;;11.78;44.80;99986.31;6191295;23;20037;-87
2023/01/02 01:08:11;;;;;;;1.10;0.40;;;;;;;11.73;44.82;99980.75;6191902;23;20012;-87
2023/01/02 01:10:37;;;;;;;0.93;0.50;;;;;;;11.81;44.61;99993.94;6216057;23;20052;-87
2023/01/02 01:13:05;;;;;;;0.50;0.50;;;;;;;11.76;44.56;99993.75;6191534;23;20004;-87
2023/01/02 01:15:34;;;;;;;0.82;0.60;;;;;;;11.80;44.41;100003.00;6190422;23;20027;-87
2023/01/02 01:18:00;;;;;;;0.88;0.55;;;;;;;11.80;44.30;100008.34;6190613;23;20437;-87
2023/01/02 01:20:26;;;;;;;1.13;0.55;;;;;;;11.70;44.70;100002.56;6190380;23;20011;-87
2023/01/02 01:22:51;;;;;;;2.15;0.75;;;;;;;11.71;44.19;99998.03;6215566;23;20005;-87
2023/01/02 01:25:17;;;;;;;2.20;0.73;;;;;;;11.75;44.32;100005.47;6189460;23;20089;-87
2023/01/02 01:27:43;;;;;;;1.75;0.70;;;;;;;11.71;44.44;100009.59;6189895;23;20011;-87
2023/01/02 01:30:09;;;;;;;1.70;0.70;;;;;;;11.76;44.33;100025.88;6189974;23;20008;-87
2023/01/02 01:32:35;;;;;;;0.90;0.50;;;;;;;11.77;44.33;100026.69;6215906;23;20676;-87
2023/01/02 01:35:00;;;;;;;0.85;0.40;;;;;;;11.75;44.08;100034.91;6190439;23;20068;-87
2023/01/02 01:37:26;;;;;;;1.52;0.57;;;;;;;11.72;44.41;100026.47;6189623;23;20024;-87
2023/01/02 01:39:52;;;;;;;1.38;0.60;;;;;;;11.69;44.28;100025.00;6190396;23;20069;-86
2023/01/02 01:42:18;;;;;;;2.22;0.55;;;;;;;11.71;44.45;100041.72;6215713;23;20430;-87
2023/01/02 01:44:48;;;;;;;2.83;0.50;;;;;;;11.74;44.20;100046.63;6215553;23;20000;-87
2023/01/02 01:47:37;;;;;;;0.73;0.60;;;;;;;11.70;44.37;100045.41;6190511;23;20004;-87
2023/01/02 01:50:26;;;;;;;3.42;0.55;;;;;;;11.74;44.37;100060.03;6239890;23;20405;-87
2023/01/02 01:52:56;;;;;;;1.00;0.40;;;;;;;11.77;44.38;100056.94;6214665;23;20036;-87
2023/01/02 01:55:25;;;;;;;1.45;0.70;;;;;;;11.77;44.23;100066.84;6211864;23;20008;-87
2023/01/02 01:57:54;;;;;;;2.60;0.70;;;;;;;11.76;44.28;100059.81;6190178;23;20503;-87
2023/01/02 02:00:19;;;;;;;1.90;0.70;;;;;;;11.76;44.34;100067.84;6190186;23;20004;-87
2023/01/02 02:02:47;;;;;;;2.65;0.70;;;;;;;11.61;44.24;100052.00;6214942;23;20003;-87
2023/01/02 02:05:14;;;;;;;1.10;0.60;;;;;;;11.76;43.92;100066.03;6189560;23;20011;-87
2023/01/02 02:07:42;;;;;;;1.17;0.60;;;;;;;11.69;43.99;100065.16;6215357;23;20032;-87
2023/01/02 02:10:09;;;;;;;0.47;0.43;;;;;;;11.69;44.05;100065.16;6190667;23;20019;-87
2023/01/02 02:12:34;;;;;;;1.63;0.93;;;;;;;11.68;44.44;100063.53;6190398;23;20497;-87
2023/01/02 02:15:03;;;;;;;2.05;0.50;;;;;;;11.70;44.17;100072.19;6190349;23;20022;-87
2023/01/02 02:17:31;;;;;;;2.60;0.80;;;;;;;11.74;44.24;100084.13;6190301;23;20020;-87
2023/01/02 02:20:07;;;;;;;1.40;0.50;;;;;;;11.64;44.28;100081.84;6242360;22;20027;-87
2023/01/02 02:22:53;;;;;;;3.25;0.55;;;;;;;11.74;44.20;100089.47;6241009;23;20000;-87
2023/01/02 02:25:48;;;;;;;1.73;0.60;;;;;;;11.75;44.01;100096.50;6214042;23;20073;-87
2023/01/02 02:28:17;;;;;;;1.85;0.65;;;;;;;11.69;43.98;100104.50;6240192;23;20480;-86
2023/01/02 02:30:56;;;;;;;0.80;0.50;;;;;;;11.68;44.46;100110.91;6241116;22;20000;-87
2023/01/02 02:33:31;;;;;;;1.45;0.57;;;;;;;11.70;44.25;100119.56;6190464;23;20636;-87
2023/01/02 02:36:20;;;;;;;0.68;0.57;;;;;;;11.70;43.97;100119.56;6240318;23;20011;-87
2023/01/02 02:39:13;;;;;;;1.10;0.40;;;;;;;11.70;44.03;100119.56;6191160;23;20015;-86
2023/01/02 02:41:46;;;;;;;1.95;0.80;;;;;;;11.68;44.39;100122.44;6219407;23;20077;-86
2023/01/02 02:44:39;;;;;;;0.40;0.40;;;;;;;11.73;43.96;100125.31;6191243;23;20012;-86
2023/01/02 02:47:09;;;;;;;1.65;0.55;;;;;;;11.72;43.95;100129.00;6240311;23;20012;-86
2023/01/02 02:50:22;;;;;;;0.73;0.52;;;;;;;11.58;44.11;100105.91;6214874;23;20019;-86
2023/01/02 02:53:05;;;;;;;1.45;0.60;;;;;;;11.68;44.11;100138.50;6235203;23;20035;-86
2023/01/02 02:55:40;;;;;;;0.70;0.50;;;;;;;11.61;44.10;100129.63;6193272;23;20014;-86
2023/01/02 02:58:06;;;;;;;1.55;0.47;;;;;;;11.62;43.87;100128.56;6191388;23;20007;-86
2023/01/02 03:00:31;;;;;;;2.60;0.70;;;;;;;11.68;43.97;100138.50;6189918;23;20000;-87
2023/01/02 03:02:57;;;;;;;1.60;0.90;;;;;;;11.65;43.83;100142.38;6190664;23;20008;-86
2023/01/02 03:05:38;;;;;;;1.20;0.50;;;;;;;11.69;44.28;100145.47;6189840;23;20413;-86
2023/01/02 03:08:13;;;;;;;0.80;0.57;;;;;;;11.71;44.04;100162.19;6217233;23;20544;-86
2023/01/02 03:10:59;;;;;;;0.63;0.40;;;;;;;11.71;44.05;100164.00;6241030;23;20018;-86
2023/01/02 03:13:27;;;;;;;1.40;0.45;;;;;;;11.69;44.06;100164.22;6214414;23;20011;-87
2023/01/02 03:16:21;;;;;;;0.75;0.47;;;;;;;11.69;44.17;100164.22;6240635;23;20015;-86
2023/01/02 03:19:01;;;;;;;1.33;0.52;;;;;;;11.69;44.22;100168.75;6239859;23;20345;-87
2023/01/02 03:21:40;;;;;;;2.33;0.60;;;;;;;11.69;44.42;100184.81;6239727;23;20004;-86
2023/01/02 03:24:10;;;;;;;2.33;0.70;;;;;;;11.67;44.39;100176.97;6191030;23;20012;-86
2023/01/02 03:26:37;;;;;;;1.90;0.40;;;;;;;11.64;44.07;100172.88;6215655;23;20004;-86
2023/01/02 03:29:07;;;;;;;1.45;0.65;;;;;;;11.66;43.88;100183.38;6215383;23;20289;-86
2023/01/02 03:31:35;;;;;;;1.50;0.50;;;;;;;11.67;43.98;100181.50;6190265;23;20038;-86
2023/01/02 03:34:07;;;;;;;2.22;0.52;;;;;;;11.63;43.98;100173.06;6215642;23;20004;-86
2023/01/02 03:36:33;;;;;;;1.63;0.80;;;;;;;11.63;44.01;100170.38;6215228;23;20011;-86
2023/01/02 03:39:08;;;;;;;0.57;0.47;;;;;;;11.68;43.95;100180.50;6190469;23;20408;-86
2023/01/02 03:41:52;;;;;;;1.05;0.60;;;;;;;11.67;44.20;100184.19;6239993;23;20416;-86
2023/01/02 03:44:18;;;;;;;1.10;0.60;;;;;;;11.64;43.77;100188.06;6217042;23;20401;-86
2023/01/02 03:46:55;;;;;;;0.52;0.45;;;;;;;11.63;43.78;100194.47;6189402;23;20035;-86
2023/01/02 03:49:31;;;;;;;2.30;0.60;;;;;;;11.60;44.31;100205.56;6189635;23;20378;-87
2023/01/02 03:51:56;;;;;;;2.30;0.80;;;;;;;11.60;43.93;100209.06;6190400;23;20004;-86
2023/01/02 03:54:22;;;;;;;1.73;0.50;;;;;;;11.60;43.76;100205.56;6189867;23;20018;-86
2023/01/02 03:57:06;;;;;;;1.63;0.60;;;;;;;11.60;43.97;100214.41;6189579;23;20445;-86
2023/01/02 04:00:07;;;;;;;1.93;0.63;;;;;;;11.68;43.62;100240.22;6216217;23;20003;-86
2023/01/02 04:02:56;;;;;;;2.22;0.50;;;;;;;11.68;43.95;100240.22;6240159;23;20004;-86
2023/01/02 04:05:48;;;;;;;1.63;0.60;;;;;;;11.64;44.10;100244.28;6214374;23;20472;-86
2023/01/02 04:08:30;;;;;;;2.05;0.70;;;;;;;11.65;43.96;100240.59;6214659;23;20016;-86
2023/01/02 04:10:56;;;;;;;0.80;0.50;;;;;;;11.60;43.70;100229.66;6214325;23;20414;-86
2023/01/02 04:13:28;;;;;;;1.23;0.70;;;;;;;11.62;44.11;100233.81;6189323;23;20000;-87
2023/01/02 04:15:53;;;;;;;0.90;0.43;;;;;;;11.57;43.88;100216.66;6216016;23;20012;-86
2023/01/02 04:18:38;;;;;;;1.95;0.52;;;;;;;11.64;43.88;100239.78;6189995;23;20094;-86
2023/01/02 04:21:08;;;;;;;1.50;0.52;;;;;;;11.63;43.57;100232.78;6214482;23;20056;-87
2023/01/02 04:23:41;;;;;;;2.67;0.70;;;;;;;11.66;44.11;100247.63;6190639;23;20054;-86
2023/01/02 04:26:14;;;;;;;2.80;0.55;;;;;;;11.63;43.66;100256.84;6190926;23;20008;-86
2023/01/02 04:28:40;;;;;;;1.10;0.52;;;;;;;11.62;43.37;100257.91;6240264;23;20207;-86
2023/01/02 04:31:16;;;;;;;2.28;0.73;;;;;;;11.62;43.66;100260.56;6189386;23;20323;-87
2023/01/02 04:33:53;;;;;;;0.82;0.50;;;;;;;11.59;43.88;100260.13;6190383;23;20483;-86
2023/01/02 04:36:19;;;;;;;2.58;0.85;;;;;;;11.63;43.46;100269.44;6215613;23;20508;-86
2023/01/02 04:38:45;;;;;;;1.02;0.50;;;;;;;11.62;43.51;100262.41;6190649;23;20004;-86
2023/01/02 04:41:16;;;;;;;1.70;0.60;;;;;;;11.58;43.49;100255.81;6214952;23;20012;-86
2023/01/02 04:43:42;;;;;;;2.95;0.65;;;;;;;11.59;43.46;100260.13;6192570;23;20298;-86
2023/01/02 04:46:07;;;;;;;1.63;0.80;;;;;;;11.53;43.54;100242.19;6191675;23;20209;-87
2023/01/02 04:48:33;;;;;;;1.60;0.73;;;;;;;11.57;43.55;100248.78;6191747;23;20036;-87
2023/01/02 04:50:58;;;;;;;1.00;0.55;;;;;;;11.57;43.69;100252.31;6191221;23;20026;-86
2023/01/02 04:53:24;;;;;;;0.68;0.50;;;;;;;11.64;43.43;100263.03;6191124;23;20307;-87
2023/01/02 04:55:55;;;;;;;1.15;0.40;;;;;;;11.64;43.67;100279.09;6216623;23;20008;-87
2023/01/02 04:58:21;;;;;;;1.23;0.63;;;;;;;11.59;43.59;100269.00;6191873;23;20018;-86
2023/01/02 05:00:46;;;;;;;1.23;0.55;;;;;;;11.63;43.81;100283.63;6191799;23;20032;-87
2023/01/02 05:03:12;;;;;;;1.05;0.50;;;;;;;11.60;43.44;100291.22;6191429;23;20012;-87
2023/01/02 05:05:38;;;;;;;2.78;0.60;;;;;;;11.62;43.41;100300.72;6191087;23;20004;-86
2023/01/02 05:08:04;;;;;;;2.88;0.70;;;;;;;11.62;43.55;100300.72;6191487;23;20007;-86
2023/01/02 05:10:29;;;;;;;0.98;0.43;;;;;;;11.62;43.57;100300.72;6191949;23;20322;-86
2023/01/02 05:13:00;;;;;;;2.08;0.65;;;;;;;11.64;43.35;100304.03;6217269;23;20126;-87
2023/01/02 05:15:25;;;;;;;1.83;0.60;;;;;;;11.63;43.65;100314.94;6192731;23;20012;-86
2023/01/02 05:17:51;;;;;;;2.08;0.63;;;;;;;11.60;43.42;100316.13;6191872;23;20087;-87
2023/01/02 05:20:17;;;;;;;1.98;0.70;;;;;;;11.57;43.52;100316.56;6191961;23;20504;-87
2023/01/02 05:25:27;;;;;;;1.02;0.40;;;;;;;11.55;43.28;100321.25;6220373;23;20039;-87
2023/01/02 05:27:54;;;;;;;3.08;0.60;;;;;;;11.62;43.34;100326.66;6190324;23;20424;-86
2023/01/02 05:30:20;;;;;;;0.77;0.55;;;;;;;11.61;43.46;100330.38;6190013;23;20118;-86
2023/01/02 05:32:45;;;;;;;1.38;0.52;;;;;;;11.62;43.55;100332.00;6189929;23;20506;-87
2023/01/02 05:35:11;;;;;;;1.63;0.70;;;;;;;11.62;43.46;100338.22;6189393;23;20016;-87
2023/01/02 05:37:37;;;;;;;1.48;0.70;;;;;;;11.65;43.25;100326.25;6190124;23;20036;-86
2023/01/02 05:40:03;;;;;;;1.17;0.60;;;;;;;11.60;43.26;100313.47;6215043;23;20003;-87
2023/01/02 05:42:28;;;;;;;1.20;0.82;;;;;;;11.60;43.46;100318.00;6242336;23;20081;-87
2023/01/02 05:44:54;;;;;;;0.95;0.43;;;;;;;11.56;43.50;100327.44;6191966;23;20007;-86
2023/01/02 05:47:23;;;;;;;1.95;0.68;;;;;;;11.62;43.18;100337.34;6216825;23;20062;-86
2023/01/02 05:49:48;;;;;;;1.83;0.60;;;;;;;11.59;43.14;100335.06;6217858;23;20004;-86
2023/01/02 05:52:14;;;;;;;1.48;0.63;;;;;;;11.54;43.19;100318.75;6217208;23;20015;-87
2023/01/02 05:54:40;;;;;;;1.00;0.50;;;;;;;11.59;43.70;100343.09;6191686;23;20078;-87
2023/01/02 05:57:05;;;;;;;2.97;0.77;;;;;;;11.60;43.54;100340.22;6216454;23;20054;-87
2023/01/02 05:59:31;;;;;;;1.20;0.50;;;;;;;11.58;43.18;100336.09;6192289;23;20365;-86
2023/01/02 06:01:57;;;;;;;2.08;0.90;;;;;;;11.62;43.25;100340.88;6191415;23;20004;-87
2023/01/02 06:04:22;;;;;;;1.75;0.60;;;;;;;11.60;43.43;100320.66;6217246;23;20130;-87
2023/01/02 06:06:48;;;;;;;1.25;0.50;;;;;;;11.68;42.97;100335.78;6192451;23;20393;-87
2023/01/02 06:09:14;;;;;;;1.70;0.55;;;;;;;11.63;42.96;100329.13;6216618;23;20011;-87
2023/01/02 06:11:40;;;;;;;1.23;0.50;;;;;;;11.67;43.18;100337.59;6217151;23;20032;-86
2023/01/02 06:14:09;;;;;;;1.73;0.65;;;;;;;11.58;43.18;100322.72;6191609;23;20030;-87
2023/01/02 06:16:36;;;;;;;0.55;0.40;;;;;;;11.64;43.18;100329.94;6242276;23;19988;-86
2023/01/02 06:19:02;;;;;;;1.30;0.55;;;;;;;11.62;43.30;100343.56;6216751;23;19992;-86
2023/01/02 06:21:28;;;;;;;1.92;0.57;;;;;;;11.60;43.35;100344.75;6190892;23;20024;-87
2023/01/02 06:23:55;;;;;;;1.50;0.55;;;;;;;11.63;43.07;100345.19;6241555;23;20068;-86
2023/01/02 06:26:21;;;;;;;2.45;0.60;;;;;;;11.63;43.08;100347.06;6191674;23;20103;-86
2023/01/02 06:28:52;;;;;;;0.80;0.60;;;;;;;11.63;43.31;100339.84;6216418;23;20071;-87
2023/01/02 06:31:19;;;;;;;1.02;0.50;;;;;;;11.68;43.21;100341.13;6190361;23;20008;-86
2023/01/02 06:33:44;;;;;;;1.40;0.52;;;;;;;11.64;43.15;100325.44;6191248;23;20054;-86
2023/01/02 06:36:10;;;;;;;1.17;0.70;;;;;;;11.69;43.06;100342.75;6191556;23;20484;-86
2023/01/02 06:38:36;;;;;;;1.63;0.38;;;;;;;11.64;43.20;100327.28;6241798;23;20008;-87
2023/01/02 06:41:01;;;;;;;0.70;0.60;;;;;;;11.67;43.26;100336.78;6190801;23;20437;-86
2023/01/02 06:43:28;;;;;;;2.03;0.60;;;;;;;11.57;43.36;100319.22;6215344;23;20004;-86
2023/01/02 06:45:56;;;;;;;1.58;0.55;;;;;;;11.60;42.96;100318.00;6190585;23;20441;-86
2023/01/02 06:48:23;;;;;;;1.27;0.60;;;;;;;11.60;42.89;100331.38;6190665;23;20034;-87
2023/01/02 06:50:48;;;;;;;1.00;0.52;;;;;;;11.64;42.96;100335.31;6216487;23;20008;-86
2023/01/02 06:53:14;;;;;;;1.10;0.52;;;;;;;11.63;43.35;100325.63;6189580;23;20455;-86
2023/01/02 06:55:48;;;;;;;1.27;0.68;;;;;;;11.61;42.96;100325.00;6215921;23;20027;-86
2023/01/02 06:58:14;;;;;;;1.05;0.43;;;;;;;11.61;43.16;100325.84;6192191;23;20141;-86
2023/01/02 07:00:40;;;;;;;1.83;0.55;;;;;;;11.62;43.02;100329.31;6190599;23;20058;-86
2023/01/02 07:03:08;;;;;;;2.30;0.60;;;;;;;11.66;43.11;100346.66;6190308;23;20437;-86
2023/01/02 07:05:34;;;;;;;1.50;0.60;;;;;;;11.63;42.77;100339.03;6214858;23;20490;-86
2023/01/02 07:08:00;;;;;;;1.45;0.70;;;;;;;11.67;42.82;100356.34;6216374;23;20004;-86
2023/01/02 07:10:25;;;;;;;1.35;0.60;;;;;;;11.62;43.17;100353.41;6190115;23;20012;-86
2023/01/02 07:12:51;;;;;;;0.95;0.50;;;;;;;11.61;42.94;100362.50;6215077;23;20000;-87
2023/01/02 07:15:17;;;;;;;2.05;0.57;;;;;;;11.62;42.92;100378.34;6214044;23;20053;-86
2023/01/02 07:17:42;;;;;;;0.95;0.57;;;;;;;11.65;42.82;100374.44;6189524;23;20036;-86
2023/01/02 07:20:08;;;;;;;1.90;0.60;;;;;;;11.65;42.86;100394.00;6215838;23;20000;-87
2023/01/02 07:22:34;;;;;;;1.17;0.60;;;;;;;11.66;42.97;100397.53;6191256;23;20348;-86
2023/01/02 07:25:00;;;;;;;2.67;0.77;;;;;;;11.71;43.14;100403.13;6216272;23;20000;-86
2023/01/02 07:27:29;;;;;;;1.95;0.60;;;;;;;11.62;42.79;100396.25;6189039;23;20066;-86
2023/01/02 07:29:55;;;;;;;3.53;0.70;;;;;;;11.65;42.99;100410.06;6189014;23;20004;-86
2023/01/02 07:32:21;;;;;;;0.80;0.40;;;;;;;11.68;42.80;100414.22;6215148;23;20015;-86
2023/01/02 07:34:47;;;;;;;1.75;0.60;;;;;;;11.63;43.05;100413.97;6191374;23;20008;-86
2023/01/02 07:37:12;;;;;;;1.55;0.40;;;;;;;11.68;42.78;100430.28;6215686;23;20482;-86
2023/01/02 07:39:38;;;;;;;1.73;0.50;;;;;;;11.66;42.91;100432.34;6190297;23;20324;-86
2023/01/02 07:42:04;;;;;;;2.67;0.55;;;;;;;11.71;42.79;100451.31;6190688;23;20004;-86
2023/01/02 07:44:29;;;;;;;1.75;0.68;;;;;;;11.63;42.58;100443.44;6215892;23;20012;-87
2023/01/02 07:46:55;;;;;;;1.45;0.60;;;;;;;11.66;42.65;100459.09;6215884;23;20357;-86
2023/01/02 07:49:21;;;;;;;0.63;0.45;;;;;;;11.66;42.68;100456.44;6190282;23;20341;-87
2023/01/02 07:51:46;;;;;;;1.48;0.63;;;;;;;11.68;42.65;100458.91;6215089;23;20356;-87
2023/01/02 07:54:12;;;;;;;0.80;0.50;;;;;;;11.69;42.44;100455.19;6215041;23;20012;-87
2023/01/02 07:56:37;;;;;;;2.42;0.70;;;;;;;11.67;42.83;100458.06;6215851;23;20115;-86
2023/01/02 07:59:08;;;;;;;1.70;0.75;;;;;;;11.68;42.74;100462.41;6190449;23;20391;-87
2023/01/02 08:01:37;;;;;;;0.88;0.60;;;;;;;11.61;42.50;100459.69;6215455;23;20024;-86
2023/01/02 08:04:03;;;;;;;1.33;0.40;;;;;;;11.64;42.58;100458.44;6190807;23;20065;-86
2023/01/02 08:06:29;;;;;;;1.70;0.70;;;;;;;11.59;42.75;100450.16;6240752;23;20285;-87
2023/01/02 08:08:54;;;;;;;0.73;0.40;;;;;;;11.68;42.62;100472.31;6190861;23;20034;-86
2023/01/02 08:11:20;;;;;;;1.27;0.50;;;;;;;11.68;42.90;100470.44;6191113;23;20084;-87
2023/01/02 08:13:46;;;;;;;1.63;0.70;;;;;;;11.66;42.59;100467.13;6217567;23;20000;-86
2023/01/02 08:16:16;;;;;;;3.22;0.70;;;;;;;11.68;42.38;100480.34;6217770;23;20035;-87
2023/01/02 08:18:42;;;;;;;1.70;0.55;;;;;;;11.58;42.71;100464.59;6192982;23;20026;-86
2023/01/02 08:21:08;;;;;;;1.40;0.60;;;;;;;11.71;42.65;100482.59;6191827;23;20004;-86
2023/01/02 08:23:34;;;;;;;2.33;0.60;;;;;;;11.62;42.58;100471.19;6211105;23;20333;-86
2023/01/02 08:26:00;;;;;;;1.45;0.70;;;;;;;11.65;42.50;100479.66;6216593;23;20319;-87
2023/01/02 08:28:26;;;;;;;2.90;0.93;;;;;;;11.69;42.45;100482.78;6216479;23;20369;-86
2023/01/02 08:30:55;;;;;;;1.38;0.70;;;;;;;11.67;42.39;100484.84;6216510;23;20000;-87
2023/01/02 08:33:20;;;;;;;1.45;0.60;;;;;;;11.69;42.59;100492.69;6191459;23;20008;-87
2023/01/02 08:35:46;;;;;;;2.15;0.60;;;;;;;11.71;42.35;100496.00;6191494;23;20446;-87
2023/01/02 08:38:12;;;;;;;1.25;0.70;;;;;;;11.74;42.74;100500.97;6191675;23;20004;-87
2023/01/02 08:40:38;;;;;;;0.60;0.45;;;;;;;11.67;42.73;100500.91;6191716;23;20007;-86
2023/01/02 08:43:07;;;;;;;1.10;0.60;;;;;;;11.70;42.39;100503.19;6191232;23;20011;-86
2023/01/02 08:45:33;;;;;;;1.38;0.50;;;;;;;11.68;42.39;100505.25;6217065;23;20004;-86
2023/01/02 08:47:59;;;;;;;0.90;0.60;;;;;;;11.69;42.47;100514.91;6216343;23;20035;-87
2023/01/02 08:50:24;;;;;;;2.65;0.63;;;;;;;11.70;42.47;100511.22;6191632;23;20004;-86
2023/01/02 08:52:50;;;;;;;1.55;0.70;;;;;;;11.62;42.54;100503.31;6190747;23;20027;-86
2023/01/02 08:55:16;;;;;;;2.00;0.60;;;;;;;11.67;42.33;100516.97;6215763;23;20024;-87
2023/01/02 08:57:44;;;;;;;1.08;0.60;;;;;;;11.72;42.42;100516.41;6190669;23;20149;-87
2023/01/02 09:00:10;;;;;;;2.28;0.73;;;;;;;11.63;42.36;100499.63;6190291;23;20467;-86
2023/01/02 09:02:36;;;;;;;1.15;0.60;;;;;;;11.67;42.55;100516.97;6191167;23;20004;-86
2023/01/02 09:05:01;;;;;;;2.13;0.63;;;;;;;11.71;42.60;100525.44;6189579;23;20498;-86
2023/01/02 09:07:27;;;;;;;2.00;1.00;;;;;;;11.65;42.25;100516.34;6189520;23;20011;-86
2023/01/02 09:09:53;;;;;;;1.98;0.85;;;;;;;11.67;42.23;100521.50;6189809;23;20087;-87
2023/01/02 09:12:19;;;;;;;1.70;0.60;;;;;;;11.73;42.41;100532.28;6189147;23;20336;-87
2023/01/02 09:14:44;;;;;;;2.55;0.80;;;;;;;11.69;42.29;100524.81;6214517;23;20429;-86
2023/01/02 09:17:10;;;;;;;1.23;0.70;;;;;;;11.72;42.18;100535.97;6189794;23;20067;-86
2023/01/02 09:19:36;;;;;;;1.00;0.50;;;;;;;11.58;42.46;100523.47;6216270;23;20005;-87
2023/01/02 09:22:02;;;;;;;0.88;0.50;;;;;;;11.66;42.30;100542.09;6190365;23;20307;-87
2023/01/02 09:24:28;;;;;;;1.40;0.60;;;;;;;11.61;42.38;100534.63;6216426;23;20035;-87
2023/01/02 09:26:54;;;;;;;2.92;0.90;;;;;;;11.70;42.30;100554.06;6190713;23;20433;-87
2023/01/02 09:29:20;;;;;;;0.95;0.50;;;;;;;11.68;42.20;100556.13;6190438;23;20087;-86
2023/01/02 09:31:45;;;;;;;2.63;0.75;;;;;;;11.61;42.26;100529.28;6190530;23;20443;-87
2023/01/02 09:34:11;;;;;;;1.40;0.60;;;;;;;11.68;42.01;100547.25;6215730;23;20008;-87
2023/01/02 09:36:37;;;;;;;1.60;0.70;;;;;;;11.76;42.20;100564.03;6216261;23;20059;-86
2023/01/02 09:39:03;;;;;;;1.85;0.80;;;;;;;11.72;42.22;100565.41;6190339;23;20074;-86
2023/01/02 09:41:37;;;;;;;1.25;0.75;;;;;;;11.71;42.30;100569.13;6190468;23;20012;-87
2023/01/02 09:44:23;;;;;;;0.80;0.50;;;;;;;11.74;42.52;100583.97;6190957;23;20032;-86
2023/01/02 09:46:55;;;;;;;1.35;0.65;;;;;;;11.70;42.64;100580.84;6215547;23;20117;-87
2023/01/02 09:49:25;;;;;;;1.55;0.75;;;;;;;11.67;42.42;100575.84;6190445;23;20003;-87
2023/01/02 09:51:50;;;;;;;1.50;1.00;;;;;;;11.64;42.44;100566.38;6191471;23;20064;-87
2023/01/02 09:54:23;;;;;;;1.88;0.50;;;;;;;11.71;42.32;100582.50;6215301;23;20414;-86
2023/01/02 09:57:27;;;;;;;1.50;0.50;;;;;;;11.70;42.23;100583.53;6215789;23;20008;-87
2023/01/02 10:00:08;;;;;;;1.02;0.70;;;;;;;11.75;42.34;100582.97;6240694;23;20057;-87
2023/01/02 10:03:22;;;;;;;1.27;0.50;;;;;;;11.75;42.34;100583.78;6216422;23;20007;-87
2023/01/02 10:05:53;;;;;;;0.68;0.50;;;;;;;11.73;42.46;100579.63;6208974;23;20016;-86
2023/01/02 10:08:56;;;;;;;1.02;0.60;;;;;;;11.76;42.47;100582.78;6215340;23;20464;-86
2023/01/02 10:11:27;;;;;;;1.15;0.50;;;;;;;11.75;42.31;100583.78;6214921;23;20012;-87
2023/01/02 10:14:23;;;;;;;2.65;0.82;;;;;;;11.71;42.30;100571.81;6240530;23;20004;-87
2023/01/02 10:16:51;;;;;;;0.73;0.60;;;;;;;11.72;42.19;100565.41;6215155;23;20015;-87
2023/01/02 10:19:43;;;;;;;3.55;0.73;;;;;;;11.64;42.23;100549.47;6189089;23;20086;-86
2023/01/02 10:22:12;;;;;;;1.30;0.57;;;;;;;11.74;42.15;100566.03;6171628;23;20091;-87
2023/01/02 10:24:56;;;;;;;1.58;0.77;;;;;;;11.73;42.21;100559.06;6188442;23;20030;-87
2023/01/02 10:27:26;;;;;;;2.33;0.80;;;;;;;11.72;41.96;100545.84;6237332;23;20094;-86
2023/01/02 10:30:16;;;;;;;0.88;0.50;;;;;;;11.74;42.42;100549.97;6213924;23;20308;-87
2023/01/02 10:32:43;;;;;;;0.95;0.50;;;;;;;11.69;42.14;100547.03;6212943;23;20019;-86
2023/01/02 10:35:15;;;;;;;1.52;0.60;;;;;;;11.75;42.13;100557.00;6186394;23;20004;-87
2023/01/02 10:37:40;;;;;;;1.10;0.70;;;;;;;11.67;42.05;100543.72;6189255;23;20432;-87
2023/01/02 10:40:06;;;;;;;1.90;0.65;;;;;;;11.71;42.12;100547.72;6188464;23;20095;-86
2023/01/02 10:42:32;;;;;;;0.65;0.50;;;;;;;11.75;42.06;100550.81;6188003;23;20396;-87
2023/01/02 10:44:58;;;;;;;1.55;0.75;;;;;;;11.61;42.14;100523.91;6213246;23;20000;-87
2023/01/02 10:47:37;;;;;;;2.05;0.68;;;;;;;11.71;42.11;100538.81;6187340;23;20004;-87
2023/01/02 10:50:05;;;;;;;1.42;0.60;;;;;;;11.75;41.83;100538.25;6213444;23;20007;-86
2023/01/02 10:52:38;;;;;;;1.05;0.68;;;;;;;11.66;41.94;100520.69;6188734;23;20008;-86
2023/01/02 10:55:06;;;;;;;1.75;0.80;;;;;;;11.70;42.06;100523.78;6213232;23;20368;-87
2023/01/02 10:57:44;;;;;;;2.30;0.70;;;;;;;11.74;42.00;100531.22;6188123;23;20056;-87
2023/01/02 11:00:32;;;;;;;0.95;0.60;;;;;;;11.78;42.16;100537.88;6214632;23;20001;-87
2023/01/02 11:03:14;;;;;;;0.95;0.40;;;;;;;11.69;42.15;100509.56;6238518;23;20004;-86
2023/01/02 11:05:47;;;;;;;1.33;0.60;;;;;;;11.78;41.87;100531.69;6188058;23;20000;-86
2023/01/02 11:08:15;;;;;;;0.90;0.53;;;;;;;11.73;41.87;100518.03;6188799;23;20463;-87
2023/01/02 11:10:41;;;;;;;1.48;0.70;;;;;;;11.76;41.92;100520.34;6189451;23;20788;-87
2023/01/02 11:13:14;;;;;;;0.68;0.57;;;;;;;11.76;42.00;100521.19;6188846;23;20065;-87
2023/01/02 11:16:12;;;;;;;1.60;0.60;;;;;;;11.80;42.07;100516.28;6212054;23;20012;-86
2023/01/02 11:18:38;;;;;;;2.85;0.70;;;;;;;11.70;42.36;100505.06;6131668;23;20449;-86
2023/01/02 11:21:05;;;;;;;1.17;0.55;;;;;;;11.75;41.85;100511.47;6187554;23;20007;-87
2023/01/02 11:23:41;;;;;;;0.77;0.50;;;;;;;11.68;41.97;100515.97;6187588;23;20095;-87
2023/01/02 11:26:25;;;;;;;1.25;0.60;;;;;;;11.60;41.95;100510.72;6188813;23;20357;-86
2023/01/02 11:28:51;;;;;;;4.33;1.40;;;;;;;11.72;42.04;100530.59;6187709;23;20059;-87
2023/01/02 11:31:17;;;;;;;1.92;0.75;;;;;;;11.64;41.68;100511.97;6212569;23;20682;-87
2023/01/02 11:33:43;;;;;;;1.08;0.70;;;;;;;11.74;41.82;100536.59;6237507;23;20000;-86
2023/01/02 11:36:12;;;;;;;1.00;0.70;;;;;;;11.77;41.92;100541.56;6187003;23;20373;-87
2023/01/02 11:38:50;;;;;;;1.00;0.70;;;;;;;11.76;41.85;100534.56;6237290;23;20255;-86
2023/01/02 11:44:20;;;;;;;1.33;0.65;;;;;;;11.74;41.74;100517.84;6239335;23;20412;-87